Weather at Robinson International Air Field

Public forecast

Using degrees Celsius for public forecast. Weather courtesy of forecast.io.

Closest aviation weather report (METAR) to Robinson International Air Field

Closest report is Wiarton Airport, 34.6 nm (64.1 km) N. Retrieved 2021/06/24 18:00 UTC (12 minutes ago):

CYVV 241800Z 20018G25KT 15SM SCT100 OVC250 27/09 A3003 RMK AC4CI4 SLP168 DENSITY ALT 2200FT

Closest aviation forecast (TAF) to Robinson International Air Field

Closest forecast is Wiarton Airport, 34.6 nm (64.1 km) N. Retrieved 2021/06/24 14:00 UTC (4 hours ago):

TAF CYVV 241338Z 2414/2423 21015G25KT P6SM SCT040 FM242000 21015G30KT P6SM SCT040 BKN100 TEMPO 2420/2423 P6SM -SHRA BKN040 BKN100 RMK NXT FCST BY 242000Z